KMCC/MCC METAR and TAF weather

Enter ICAO airport designator
Station Type Date Time Source
KMCC METAR 2020/11/27 14:15 UTC NOAA

KMCC 271415Z AUTO 00000KT 10SM CLR 02/M02 A3022 RMK AO2


Station Type Date Time Source
KMCC Decoded METAR 2020/11/27 14:15 UTC NOAA

Sacramento, McClellan Airfield Airport, CA, United States (KMCC) 38-40N 121-24W
Nov 27, 2020 - 09:15 AM EST / 2020.11.27 1415 UTC
Wind: Calm:0
Visibility: 10 mile(s):0
Sky conditions: clear
Temperature: 35 F (2 C)
Dew Point: 28 F (-2 C)
Relative Humidity: 74%
Pressure (altimeter): 30.22 in. Hg (1023 hPa)
ob: KMCC 271415Z AUTO 00000KT 10SM CLR 02/M02 A3022 RMK AO2
cycle: 14

Station Type Date Time Source
KMCC TAF 2020/11/27 12:33 UTC NOAA

TAF KMCC 271129Z 2712/2812 VRB04KT P6SM SKC

Example: see airport list